Time;durP1;ratioP1;P1;durP2;ratioP2;P2;SDS_P1;SDS_P2;PMS_P1;PMS_P2;Temp;Humidity;BMP_temperature;BMP_pressure;BME280_temperature;BME280_humidity;BME280_pressure;Samples;Min_cycle;Max_cycle;Signal;HPM_P1;HPM_P2
2022/12/29 00:03:16;;;;;;;14.10;6.10;;;;;;;6.43;49.19;99040.23;234432;1198;138621;-75
2022/12/29 00:09:01;;;;;;;15.40;6.60;;;;;;;6.40;49.21;99044.71;234380;1202;138719;-77
2022/12/29 00:44:22;;;;;;;15.30;8.10;;;;;;;6.16;50.03;99052.85;234181;1203;139150;-69
2022/12/29 00:50:19;;;;;;;;;;;;;;;;;;;;;
2022/12/29 01:03:17;;;;;;;15.20;7.60;;;;;;;6.26;49.40;99051.71;234118;1200;139189;-70
2022/12/29 01:15:04;;;;;;;;;;;;;;;;;;;;;
2022/12/29 01:21:19;;;;;;;15.70;7.60;;;;;;;6.21;49.26;99048.42;234358;1199;138805;-72
2022/12/29 01:27:23;;;;;;;11.90;6.10;;;;;;;6.21;49.42;99039.95;234420;1199;139352;-72
2022/12/29 01:33:12;;;;;;;10.20;5.50;;;;;;;6.22;49.03;99021.94;234438;1199;140125;-73
2022/12/29 01:53:47;;;;;;;10.30;5.20;;;;;;;6.20;48.79;99011.98;234392;1199;138704;-73
2022/12/29 01:58:59;;;;;;;11.20;6.00;;;;;;;6.15;49.77;99007.29;234248;1200;139698;-73
2022/12/29 02:04:35;;;;;;;11.30;5.90;;;;;;;6.09;49.73;99010.37;234508;1199;138625;-73
2022/12/29 02:10:52;;;;;;;9.10;5.10;;;;;;;6.10;49.72;99004.16;234377;1196;138965;-74
2022/12/29 02:30:33;;;;;;;;;;;;;;;;;;;;;
2022/12/29 02:51:38;;;;;;;;;;;;;;;;;;;;;
2022/12/29 02:58:37;;;;;;;9.60;4.40;;;;;;;6.23;49.40;98948.79;234779;1201;138346;-70
2022/12/29 03:20:38;;;;;;;;;;;;;;;;;;;;;
2022/12/29 03:32:56;;;;;;;9.40;3.80;;;;;;;5.76;54.38;98949.65;234624;1199;138207;-70
2022/12/29 03:39:11;;;;;;;14.80;7.90;;;;;;;5.65;54.61;98955.23;234727;1195;138945;-72
2022/12/29 03:51:16;;;;;;;;;;;;;;;;;;;;;
2022/12/29 03:57:41;;;;;;;19.50;8.70;;;;;;;5.43;54.65;98950.70;234792;1195;138348;-71
2022/12/29 04:03:32;;;;;;;45.20;28.60;;;;;;;5.30;54.75;98949.48;234810;1195;138628;-71
2022/12/29 04:09:09;;;;;;;;;;;;;;;;;;;;;
2022/12/29 04:14:42;;;;;;;14.60;7.70;;;;;;;5.17;56.55;98953.73;234672;1195;138999;-70
2022/12/29 04:33:47;;;;;;;15.10;6.60;;;;;;;5.27;56.67;98942.73;234519;1196;138416;-70
2022/12/29 04:39:38;;;;;;;18.10;7.50;;;;;;;5.19;56.42;98931.33;234950;1194;138360;-69
2022/12/29 04:45:33;;;;;;;;;;;;;;;;;;;;;
2022/12/29 04:51:59;;;;;;;13.70;6.10;;;;;;;5.11;56.13;98912.30;234907;1193;139312;-69
2022/12/29 04:58:16;;;;;;;16.80;5.20;;;;;;;5.13;56.61;98910.80;234838;1194;139216;-78
2022/12/29 05:04:38;;;;;;;175.80;129.60;;;;;;;5.21;56.00;98906.94;234908;1194;138623;-70
2022/12/29 05:10:43;;;;;;;;;;;;;;;;;;;;;
2022/12/29 05:23:23;;;;;;;21.00;6.60;;;;;;;5.41;55.50;98902.07;234709;1195;138656;-71
2022/12/29 05:29:47;;;;;;;16.60;5.90;;;;;;;5.26;55.72;98892.70;234717;1195;138415;-70
2022/12/29 05:35:32;;;;;;;21.60;6.90;;;;;;;5.18;56.11;98890.91;234730;1195;138356;-69
2022/12/29 05:48:33;;;;;;;;;;;;;;;5.02;57.14;98897.38;234651;1198;138825;-72
2022/12/29 06:10:10;;;;;;;24.80;6.50;;;;;;;4.78;57.50;98907.00;234627;1198;138708;-71
2022/12/29 06:16:11;;;;;;;21.20;6.60;;;;;;;4.68;57.74;98892.30;234686;1195;138641;-70
2022/12/29 06:29:40;;;;;;;;;;;;;;;;;;;;;
2022/12/29 06:49:47;;;;;;;;;;;;;;;;;;;;;
2022/12/29 06:56:34;;;;;;;19.70;6.30;;;;;;;5.04;56.47;98888.86;234599;1195;138627;-67
2022/12/29 07:02:38;;;;;;;8.10;4.60;;;;;;;5.10;55.61;98879.11;234763;1193;140018;-73
2022/12/29 07:09:03;;;;;;;23.40;6.10;;;;;;;5.37;55.55;98880.57;234956;1194;138772;-72
2022/12/29 07:15:17;;;;;;;17.70;5.90;;;;;;;5.33;55.55;98879.89;234989;1194;138638;-77
2022/12/29 07:21:32;;;;;;;;;;;;;;;;;;;;;
2022/12/29 07:27:57;;;;;;;16.70;5.40;;;;;;;5.46;55.58;98897.65;234925;1197;139284;-79
2022/12/29 07:42:18;;;;;;;19.70;5.50;;;;;;;5.36;56.98;98892.93;233340;1204;138533;-70
2022/12/29 07:48:08;;;;;;;;;;;;;;;;;;;;;
2022/12/29 07:54:35;;;;;;;18.50;7.10;;;;;;;5.27;57.90;98871.38;234450;1201;138952;-71
2022/12/29 08:01:00;;;;;;;18.90;8.20;;;;;;;5.19;57.71;98866.22;234830;1196;138448;-73
2022/12/29 08:07:19;;;;;;;;;;;;;;;;;;;;;
2022/12/29 08:32:58;;;;;;;10.60;4.20;;;;;;;6.63;53.01;98866.52;231598;1198;138109;-75
2022/12/29 08:39:23;;;;;;;8.10;3.90;;;;;;;6.89;52.05;98874.27;234485;1198;138777;-81
2022/12/29 08:45:10;;;;;;;8.10;4.00;;;;;;;7.16;51.33;98878.36;234378;1196;138311;-70
2022/12/29 08:51:35;;;;;;;8.70;4.10;;;;;;;7.35;50.70;98873.48;234335;1197;138247;-74
2022/12/29 08:58:00;;;;;;;11.00;3.80;;;;;;;7.61;49.97;98866.69;234335;1196;138540;-72
2022/12/29 09:04:27;;;;;;;7.40;3.80;;;;;;;7.84;49.36;98857.86;234466;1196;139583;-69
2022/12/29 09:10:14;;;;;;;8.90;3.90;;;;;;;8.05;48.74;98854.42;234445;1196;139605;-72
2022/12/29 09:16:32;;;;;;;12.40;4.40;;;;;;;8.19;48.84;98857.23;234357;1197;137964;-66
2022/12/29 09:22:41;;;;;;;;;;;;;;;;;;;;;
2022/12/29 09:29:07;;;;;;;18.70;4.80;;;;;;;8.43;48.20;98832.55;234174;1197;138972;-70
2022/12/29 09:35:31;;;;;;;11.40;5.20;;;;;;;8.61;47.48;98820.77;234443;1197;139268;-70
2022/12/29 09:41:47;;;;;;;16.00;5.40;;;;;;;8.74;47.30;98818.57;234425;1198;138443;-69
2022/12/29 09:48:12;;;;;;;54.70;31.80;;;;;;;8.89;49.19;98831.67;234529;1198;139432;-70
2022/12/29 09:54:28;;;;;;;;;;;;;;;;;;;;;
2022/12/29 10:00:37;;;;;;;;;;;;;;;;;;;;;
2022/12/29 10:13:37;;;;;;;;;;;;;;;;;;;;;
2022/12/29 10:33:17;;;;;;;;;;;;;;;;;;;;;
2022/12/29 10:40:16;;;;;;;16.80;7.00;;;;;;;10.78;44.77;98800.58;234015;1200;138524;-68
2022/12/29 10:45:39;;;;;;;19.20;6.10;;;;;;;11.03;44.46;98786.48;234899;1193;138457;-71
2022/12/29 10:51:48;;;;;;;20.10;5.90;;;;;;;11.25;43.87;98786.42;234754;1196;138631;-68
2022/12/29 11:05:14;;;;;;;;;;;;;;;;;;;;;
2022/12/29 11:17:18;;;;;;;10.70;4.40;;;;;;;11.91;42.99;98751.73;234469;1196;138922;-69
2022/12/29 11:24:22;;;;;;;;;;;;;;;;;;;;;
2022/12/29 11:36:29;;;;;;;;;;;;;;;;;;;;;
2022/12/29 11:42:18;;;;;;;;;;;;;;;12.01;42.56;98742.63;235090;1196;139636;-68
2022/12/29 11:47:36;;;;;;;10.90;5.20;;;;;;;12.07;42.19;98744.87;235251;1193;125014;-69
2022/12/29 12:00:39;;;;;;;10.00;5.00;;;;;;;12.18;42.19;98728.98;234115;1197;138904;-69
2022/12/29 12:07:21;;;;;;;49.10;26.70;;;;;;;12.29;42.67;98724.59;234591;1193;139738;-68
2022/12/29 12:12:56;;;;;;;8.10;4.20;;;;;;;12.39;42.85;98720.66;235022;1193;139477;-70
2022/12/29 12:19:15;;;;;;;6.90;4.20;;;;;;;12.42;42.53;98715.95;235159;1193;138895;-71
2022/12/29 12:25:06;;;;;;;13.20;3.80;;;;;;;12.41;42.66;98722.23;235033;1193;139396;-67
2022/12/29 12:38:34;;;;;;;6.80;3.10;;;;;;;12.35;42.75;98717.95;234775;1192;138712;-68
2022/12/29 12:44:12;;;;;;;7.70;3.90;;;;;;;12.33;43.07;98715.21;235083;1192;139055;-72
2022/12/29 12:49:40;;;;;;;;;;;;;;;;;;;;;
2022/12/29 12:55:44;;;;;;;;;;;;;;;;;;;;;
2022/12/29 13:01:48;;;;;;;7.00;3.60;;;;;;;12.39;43.52;98712.08;234825;1193;138589;-74
2022/12/29 13:08:38;;;;;;;7.50;4.40;;;;;;;12.37;43.57;98717.56;235066;1193;138516;-73
2022/12/29 13:14:24;;;;;;;9.90;4.20;;;;;;;12.35;43.54;98725.73;234160;1196;139264;-71
2022/12/29 13:21:05;;;;;;;7.70;4.20;;;;;;;12.35;43.61;98720.42;234420;1196;138733;-73
2022/12/29 13:27:05;;;;;;;8.40;4.10;;;;;;;12.31;43.97;98723.38;234536;1193;138663;-70
2022/12/29 13:33:10;;;;;;;6.90;4.50;;;;;;;12.29;44.07;98733.11;234804;1192;138787;-72
2022/12/29 13:38:21;;;;;;;22.20;13.30;;;;;;;12.30;44.36;98741.42;234887;1193;138991;-73
2022/12/29 13:43:58;;;;;;;;;;;;;;;;;;;;;
2022/12/29 13:49:34;;;;;;;9.50;4.60;;;;;;;12.36;44.65;98752.73;234970;1196;140822;-72
2022/12/29 13:54:46;;;;;;;9.10;4.70;;;;;;;12.36;44.57;98757.51;234953;1193;139062;-71
2022/12/29 14:00:22;;;;;;;9.90;5.40;;;;;;;12.34;44.62;98746.65;235133;1192;140450;-73
2022/12/29 14:05:31;;;;;;;12.80;6.10;;;;;;;12.34;44.77;98738.95;234923;1193;139149;-73
2022/12/29 14:11:13;;;;;;;11.00;4.50;;;;;;;12.33;44.52;98735.88;234985;1193;138972;-72
2022/12/29 14:16:45;;;;;;;10.90;4.40;;;;;;;12.28;44.56;98737.11;235016;1192;140222;-75
2022/12/29 14:22:38;;;;;;;6.70;4.20;;;;;;;12.20;44.51;98738.42;234995;1192;138685;-73
2022/12/29 14:28:46;;;;;;;10.00;4.80;;;;;;;12.16;45.01;98734.28;234845;1193;138680;-73
2022/12/29 14:34:40;;;;;;;9.30;4.70;;;;;;;12.12;45.09;98738.69;234945;1193;138866;-75
2022/12/29 14:40:04;;;;;;;11.40;5.40;;;;;;;12.07;45.33;98734.52;235086;1192;139587;-73
2022/12/29 14:45:16;;;;;;;11.60;5.00;;;;;;;12.05;45.36;98741.41;235054;1193;139561;-76
2022/12/29 14:51:27;;;;;;;;;;;;;;;;;;;;;
2022/12/29 14:56:47;;;;;;;11.10;5.40;;;;;;;12.04;45.51;98751.15;234758;1196;138382;-73
2022/12/29 15:02:41;;;;;;;10.70;5.00;;;;;;;12.01;45.57;98757.73;235003;1192;138828;-77
2022/12/29 15:08:45;;;;;;;13.70;4.70;;;;;;;11.98;45.56;98768.49;235018;1193;139267;-76
2022/12/29 15:13:48;;;;;;;11.00;5.20;;;;;;;11.93;45.67;98762.40;234943;1193;138892;-74
2022/12/29 15:19:51;;;;;;;;;;;;;;;;;;;;;
2022/12/29 15:24:58;;;;;;;12.20;6.20;;;;;;;11.89;45.49;98760.37;234752;1192;138902;-73
2022/12/29 15:30:24;;;;;;;14.30;7.30;;;;;;;11.91;46.52;98765.39;235150;1192;139469;-69
2022/12/29 15:43:44;;;;;;;;;;;;;;;;;;;;;
2022/12/29 15:49:38;;;;;;;17.20;6.20;;;;;;;11.68;46.12;98768.06;234238;1194;139249;-71
2022/12/29 15:55:27;;;;;;;16.10;6.20;;;;;;;11.56;46.16;98768.20;235021;1193;138464;-75
2022/12/29 16:01:30;;;;;;;;;;;;;;;;;;;;;
2022/12/29 16:07:24;;;;;;;17.70;7.00;;;;;;;11.35;46.97;98772.20;234841;1196;139412;-79
2022/12/29 16:12:56;;;;;;;30.70;13.20;;;;;;;11.21;47.07;98777.25;235011;1193;139363;-73
2022/12/29 16:17:59;;;;;;;18.70;10.30;;;;;;;11.23;47.57;98774.11;234951;1196;139292;-70
2022/12/29 16:23:29;;;;;;;;;;;;;;;;;;;;;
2022/12/29 16:29:48;;;;;;;11.50;7.10;;;;;;;11.22;46.54;98772.56;234945;1193;139427;-78
2022/12/29 16:50:31;;;;;;;20.80;7.80;;;;;;;10.94;46.68;98766.99;233709;1200;140054;-75
2022/12/29 16:56:03;;;;;;;35.30;19.60;;;;;;;10.94;47.26;98765.94;234572;1196;139316;-72
2022/12/29 17:10:12;;;;;;;63.70;34.90;;;;;;;10.74;48.70;98781.33;233952;1195;140504;-67
2022/12/29 17:24:01;;;;;;;20.50;9.20;;;;;;;10.56;48.11;98773.46;234870;1193;139331;-73
2022/12/29 17:30:27;;;;;;;29.30;9.10;;;;;;;10.44;48.27;98778.30;234847;1196;139402;-71
2022/12/29 17:42:40;;;;;;;;;;;;;;;9.97;49.21;98784.02;234996;1193;139244;-69
2022/12/29 17:48:55;;;;;;;42.60;14.60;;;;;;;9.80;50.29;98782.82;234970;1193;125072;-69
2022/12/29 17:55:18;;;;;;;24.90;10.30;;;;;;;9.62;50.44;98788.82;235034;1193;139335;-72
2022/12/29 18:01:36;;;;;;;;;;;;;;;;;;;;;
2022/12/29 18:07:36;;;;;;;41.00;11.20;;;;;;;9.27;51.15;98790.67;234968;1193;139193;-71
2022/12/29 18:14:48;;;;;;;41.60;11.70;;;;;;;9.02;51.63;98788.11;235150;1193;138610;-70
2022/12/29 18:20:26;;;;;;;63.20;37.20;;;;;;;8.87;52.33;98799.25;234866;1193;138929;-72
2022/12/29 18:26:09;;;;;;;;;;;;;;;8.90;53.22;98790.94;234858;1193;140217;-70
2022/12/29 18:32:02;;;;;;;27.90;11.60;;;;;;;8.80;52.67;98791.67;234990;1193;125398;-74
2022/12/29 18:44:26;;;;;;;26.00;11.10;;;;;;;8.42;53.64;98794.27;234184;1193;140368;-72
2022/12/29 18:50:34;;;;;;;25.70;11.50;;;;;;;8.47;53.87;98790.94;234770;1193;139816;-75
2022/12/29 19:04:15;;;;;;;;;;;;;;;;;;;;;
2022/12/29 19:10:17;;;;;;;29.60;13.50;;;;;;;8.46;54.05;98782.20;233780;1199;138848;-69
2022/12/29 19:16:26;;;;;;;;;;;;;;;;;;;;;
2022/12/29 19:22:54;;;;;;;23.10;11.80;;;;;;;8.53;54.54;98770.13;233748;1200;138736;-67
2022/12/29 19:28:49;;;;;;;;;;;;;;;;;;;;;
2022/12/29 19:34:58;;;;;;;29.90;14.70;;;;;;;8.78;53.94;98766.86;234370;1198;138317;-72
2022/12/29 19:40:32;;;;;;;26.40;13.40;;;;;;;8.53;54.36;98770.47;234358;1195;138798;-70
2022/12/29 19:46:18;;;;;;;23.20;13.30;;;;;;;8.39;54.68;98784.16;234765;1194;138819;-70
2022/12/29 19:51:27;;;;;;;26.60;14.80;;;;;;;8.49;54.63;98787.65;234734;1195;139087;-74
2022/12/29 19:57:01;;;;;;;;;;;;;;;;;;;;;
2022/12/29 20:02:31;;;;;;;25.50;14.20;;;;;;;8.96;53.59;98779.44;234712;1194;139117;-70
2022/12/29 20:08:53;;;;;;;27.90;14.50;;;;;;;9.08;53.47;98774.31;234795;1198;139310;-71
2022/12/29 20:14:03;;;;;;;23.20;14.00;;;;;;;8.96;53.45;98776.23;234951;1193;139053;-73
2022/12/29 20:19:40;;;;;;;;;;;;;;;;;;;;;
2022/12/29 20:24:44;;;;;;;20.60;14.00;;;;;;;8.89;53.23;98783.17;234791;1193;139674;-71
2022/12/29 20:30:24;;;;;;;;;;;;;;;;;;;;;
2022/12/29 20:36:13;;;;;;;23.30;14.00;;;;;;;9.08;52.60;98781.20;234722;1195;139399;-72
2022/12/29 20:41:26;;;;;;;21.70;12.50;;;;;;;8.96;52.83;98793.04;234727;1195;139131;-73
2022/12/29 20:46:31;;;;;;;22.40;13.30;;;;;;;9.00;52.70;98796.15;234929;1193;139143;-73
2022/12/29 20:51:54;;;;;;;24.10;14.30;;;;;;;9.08;52.41;98794.98;234864;1193;138904;-73
2022/12/29 20:57:23;;;;;;;21.90;12.50;;;;;;;9.07;52.34;98796.09;234708;1195;138851;-72
2022/12/29 21:02:32;;;;;;;26.00;14.30;;;;;;;9.18;52.03;98801.46;234626;1194;141214;-71
2022/12/29 21:07:42;;;;;;;27.90;13.90;;;;;;;9.23;52.00;98799.20;234806;1197;139594;-74
2022/12/29 21:12:52;;;;;;;29.40;16.80;;;;;;;9.18;51.75;98801.83;234807;1194;139045;-69
2022/12/29 21:18:32;;;;;;;27.20;15.90;;;;;;;9.15;51.89;98801.46;234612;1196;139434;-71
2022/12/29 21:29:43;;;;;;;30.60;15.70;;;;;;;9.24;51.76;98797.22;234849;1194;139198;-75
2022/12/29 21:35:19;;;;;;;26.50;14.50;;;;;;;9.19;51.71;98797.14;234849;1193;140326;-72
2022/12/29 21:40:22;;;;;;;30.50;16.40;;;;;;;9.02;52.13;98812.15;235128;1193;138873;-71
2022/12/29 21:45:33;;;;;;;29.50;17.50;;;;;;;9.06;52.26;98811.41;234919;1194;139199;-70
2022/12/29 21:56:09;;;;;;;29.30;17.50;;;;;;;9.10;52.29;98812.72;235037;1193;138852;-71
2022/12/29 22:18:33;;;;;;;28.50;14.90;;;;;;;9.11;52.12;98805.58;234866;1194;139095;-71
2022/12/29 22:29:59;;;;;;;28.70;16.70;;;;;;;9.03;52.25;98819.34;234890;1195;139125;-73
2022/12/29 22:35:31;;;;;;;;;;;;;;;;;;;;;
2022/12/29 22:40:59;;;;;;;;;;;;;;;;;;;;;
2022/12/29 22:46:32;;;;;;;30.00;16.90;;;;;;;8.79;52.47;98820.58;234997;1193;139552;-74
2022/12/29 22:52:53;;;;;;;;;;;;;;;;;;;;;
2022/12/29 22:58:04;;;;;;;29.10;16.40;;;;;;;8.74;52.98;98839.08;234758;1198;138623;-70
2022/12/29 23:04:47;;;;;;;30.50;18.00;;;;;;;8.72;53.21;98835.64;234882;1197;139430;-70
2022/12/29 23:10:07;;;;;;;36.50;19.70;;;;;;;8.77;53.10;98825.83;234710;1197;139989;-72
2022/12/29 23:16:06;;;;;;;31.70;17.20;;;;;;;8.74;53.10;98827.77;234975;1195;139422;-74
2022/12/29 23:21:26;;;;;;;27.30;16.80;;;;;;;8.58;53.30;98838.97;234983;1195;139915;-70
2022/12/29 23:27:42;;;;;;;36.40;19.00;;;;;;;8.64;53.44;98830.11;235275;1195;138952;-69
2022/12/29 23:33:36;;;;;;;33.40;18.90;;;;;;;8.67;53.38;98832.61;235117;1194;139619;-70
2022/12/29 23:40:04;;;;;;;;;;;;;;;;;;;;;
2022/12/29 23:46:28;;;;;;;37.50;21.40;;;;;;;8.44;53.95;98830.77;234994;1194;139378;-74
2022/12/29 23:52:12;;;;;;;34.00;19.50;;;;;;;8.53;53.73;98828.98;235123;1195;138644;-74
2022/12/29 23:57:56;;;;;;;31.90;17.80;;;;;;;8.60;53.65;98827.36;235055;1193;138748;-72
